KARAKARB

Guest
Details From KARA - Acadiana Rgnl
To KARB - Ann Arbor Muni
Flight Number -
Tags Generated
Created
Modified
Stats Distance 830 nm / 1,537 km
Max Altitude 0 ft / 0 m
Waypoints 5
Social Downloads 0
Likes 0
Share VATSIM

Download

Looking for another format? Having issues loading an existing format? Contact us
Advertisement - Login to hide

Notes

Generated

Route

KARA FOVAB IDGOW HARTZ KARB

ID Type Via Altitude Latitude Longitude Leg Dist Tot Dist Heading (true) Name
O KARA APT - 0 ft / 0 m 30.04849˚ -91.88663˚ - 0 nm - -
FOVAB FIX - 0 ft / 0 m 34.38133˚ -89.30603˚ 291 nm 291 nm 26° / 27° -
IDGOW FIX - 0 ft / 0 m 38.24689˚ -86.73344˚ 263 nm 554 nm 27° / 29° -
HARTZ FIX - 0 ft / 0 m 42.14992˚ -83.81147˚ 269 nm 824 nm 29° / 31° -
O KARB APT - 0 ft / 0 m 42.22496˚ -83.75092˚ 5 nm 829 nm 31° / 31° Ann Arbor Muni

Altitude Profile

Advertisement - Login to hide

Weather


0- 5 10 15 20 25 30 35+ Temperature / ° C

Clouds and Precipitation
Forecast for 2017-12-18 12:00 UTC. Updated 2 hours ago

Ground ~20,000 ft ~40,000 ft Winds

KARA

Details ICAO KARA (ARA)
Name ACADIANA RGNL
Region United States
Timezone America/Chicago (UTC-6.0)
Stats Elevation 24 ft / 7 m (AMSL)
Location 30.037754° -91.883893°
Runways 1
Magnetic Variation 0.317° E

METAR

KARA 180907Z AUTO 33003KT 1 1/2SM -RA BR BKN004 OVC008 17/16 A3013 RMK AO2 P0000 T01670156

Decode

TAF

TAF KARA 180520Z 1806/1906 00000KT 1/4SM FG VCTS OVC002CB FM181600 VRB05KT P6SM VCTS BKN008 OVC017CB FM182300 07003KT 4SM BR OVC003

Decode

Departure Runways

ID Width Length Bearing (true) Bearing (mag) Surface Threshold Offset Overrun Length
16 200 ft / 61 m 8,027 ft / 2,447 m 167.57° 167.25° Concrete 0 ft / 0 m 0 ft / 0 m
34 200 ft / 61 m 8,027 ft / 2,447 m 347.57° 347.25° Concrete 0 ft / 0 m 0 ft / 0 m

KARB

Details ICAO KARB (ARB)
Name Ann Arbor Muni
Region United States
Timezone America/Detroit (UTC-5.0)
Stats Elevation 839 ft / 256 m (AMSL)
Location 42.222969° -83.745698°
Runways 2
Magnetic Variation 7.005° W

METAR

KARB 180853Z AUTO 18007KT 5SM BR OVC055 02/02 A2996 RMK AO2 SLP154 T00220017 58007

Decode

TAF

Not found

Destination Runways

ID Width Length Bearing (true) Bearing (mag) Surface Threshold Offset Overrun Length
06 75 ft / 23 m 3,501 ft / 1,067 m 54.42° 61.43° Concrete 0 ft / 0 m 0 ft / 0 m
12 112 ft / 34 m 2,796 ft / 852 m 122.28° 129.29° Grass 0 ft / 0 m 0 ft / 0 m
24 75 ft / 23 m 3,501 ft / 1,067 m 234.43° 241.44° Concrete 0 ft / 0 m 0 ft / 0 m
30 112 ft / 34 m 2,796 ft / 852 m 302.28° 309.29° Grass 0 ft / 0 m 0 ft / 0 m